sensor_id;sensor_type;location;lat;lon;timestamp;pressure;altitude;pressure_sealevel;temperature;humidity
41040;BME280;48586;50.122;18.972;2023-03-23T00:02:11;98049.47;;;9.46;57.96
41040;BME280;48586;50.122;18.972;2023-03-23T00:04:15;98049.59;;;9.40;57.85
41040;BME280;48586;50.122;18.972;2023-03-23T00:06:21;98044.75;;;9.37;57.84
41040;BME280;48586;50.122;18.972;2023-03-23T00:08:25;98045.44;;;9.32;57.79
41040;BME280;48586;50.122;18.972;2023-03-23T00:10:35;98048.59;;;9.29;58.34
41040;BME280;48586;50.122;18.972;2023-03-23T00:12:40;98046.75;;;9.30;58.67
41040;BME280;48586;50.122;18.972;2023-03-23T00:14:45;98052.63;;;9.32;58.38
41040;BME280;48586;50.122;18.972;2023-03-23T00:16:54;98040.94;;;9.33;58.50
41040;BME280;48586;50.122;18.972;2023-03-23T00:19:01;98038.88;;;9.35;58.39
41040;BME280;48586;50.122;18.972;2023-03-23T00:21:07;98044.75;;;9.37;58.06
41040;BME280;48586;50.122;18.972;2023-03-23T00:23:11;98042.88;;;9.37;58.10
41040;BME280;48586;50.122;18.972;2023-03-23T00:25:20;98049.03;;;9.38;57.77
41040;BME280;48586;50.122;18.972;2023-03-23T00:27:26;98048.19;;;9.37;57.84
41040;BME280;48586;50.122;18.972;2023-03-23T00:29:30;98041.88;;;9.38;57.99
41040;BME280;48586;50.122;18.972;2023-03-23T00:31:36;98050.88;;;9.37;57.81
41040;BME280;48586;50.122;18.972;2023-03-23T00:33:40;98048.44;;;9.36;57.86
41040;BME280;48586;50.122;18.972;2023-03-23T00:35:44;98052.97;;;9.35;57.54
41040;BME280;48586;50.122;18.972;2023-03-23T00:37:50;98046.84;;;9.35;57.89
41040;BME280;48586;50.122;18.972;2023-03-23T00:39:56;98052.16;;;9.35;57.85
41040;BME280;48586;50.122;18.972;2023-03-23T00:42:02;98048.44;;;9.36;57.89
41040;BME280;48586;50.122;18.972;2023-03-23T00:44:11;98052.50;;;9.38;57.89
41040;BME280;48586;50.122;18.972;2023-03-23T00:46:18;98048.53;;;9.41;57.63
41040;BME280;48586;50.122;18.972;2023-03-23T00:48:23;98046.81;;;9.46;57.68
41040;BME280;48586;50.122;18.972;2023-03-23T00:50:28;98048.19;;;9.49;57.53
41040;BME280;48586;50.122;18.972;2023-03-23T00:52:32;98053.03;;;9.52;57.51
41040;BME280;48586;50.122;18.972;2023-03-23T00:54:37;98051.19;;;9.53;57.49
41040;BME280;48586;50.122;18.972;2023-03-23T00:56:42;98043.75;;;9.55;57.37
41040;BME280;48586;50.122;18.972;2023-03-23T00:58:46;98043.53;;;9.56;57.31
41040;BME280;48586;50.122;18.972;2023-03-23T01:00:53;98042.75;;;9.56;57.44
41040;BME280;48586;50.122;18.972;2023-03-23T01:02:58;98045.16;;;9.57;57.58
41040;BME280;48586;50.122;18.972;2023-03-23T01:05:03;98038.22;;;9.56;57.42
41040;BME280;48586;50.122;18.972;2023-03-23T01:07:08;98038.78;;;9.58;57.22
41040;BME280;48586;50.122;18.972;2023-03-23T01:09:15;98036.72;;;9.60;57.25
41040;BME280;48586;50.122;18.972;2023-03-23T01:11:22;98030.91;;;9.63;57.26
41040;BME280;48586;50.122;18.972;2023-03-23T01:13:27;98028.81;;;9.65;57.07
41040;BME280;48586;50.122;18.972;2023-03-23T01:15:33;98027.78;;;9.66;56.86
41040;BME280;48586;50.122;18.972;2023-03-23T01:17:41;98031.81;;;9.69;56.79
41040;BME280;48586;50.122;18.972;2023-03-23T01:19:45;98031.03;;;9.68;56.89
41040;BME280;48586;50.122;18.972;2023-03-23T01:21:50;98029.97;;;9.69;56.89
41040;BME280;48586;50.122;18.972;2023-03-23T01:23:54;98032.38;;;9.71;56.72
41040;BME280;48586;50.122;18.972;2023-03-23T01:26:02;98028.91;;;9.70;56.60
41040;BME280;48586;50.122;18.972;2023-03-23T01:28:09;98036.63;;;9.72;56.63
41040;BME280;48586;50.122;18.972;2023-03-23T01:30:14;98034.22;;;9.70;56.47
41040;BME280;48586;50.122;18.972;2023-03-23T01:32:18;98031.81;;;9.69;56.50
41040;BME280;48586;50.122;18.972;2023-03-23T01:34:26;98037.47;;;9.72;56.65
41040;BME280;48586;50.122;18.972;2023-03-23T01:36:31;98034.81;;;9.72;56.62
41040;BME280;48586;50.122;18.972;2023-03-23T01:38:37;98035.63;;;9.73;56.58
41040;BME280;48586;50.122;18.972;2023-03-23T01:40:43;98030.53;;;9.71;56.62
41040;BME280;48586;50.122;18.972;2023-03-23T01:42:48;98033.19;;;9.71;56.64
41040;BME280;48586;50.122;18.972;2023-03-23T01:47:36;98025.69;;;9.68;56.47
41040;BME280;48586;50.122;18.972;2023-03-23T01:49:46;98031.03;;;9.68;56.52
41040;BME280;48586;50.122;18.972;2023-03-23T01:51:56;98028.34;;;9.68;56.65
41040;BME280;48586;50.122;18.972;2023-03-23T01:54:08;98022.31;;;9.73;56.51
41040;BME280;48586;50.122;18.972;2023-03-23T01:56:23;98021.03;;;9.75;56.29
41040;BME280;48586;50.122;18.972;2023-03-23T01:58:33;98021.81;;;9.76;56.26
41040;BME280;48586;50.122;18.972;2023-03-23T02:00:41;98023.69;;;9.75;56.44
41040;BME280;48586;50.122;18.972;2023-03-23T02:02:47;98015.69;;;9.75;56.24
41040;BME280;48586;50.122;18.972;2023-03-23T02:05:04;98011.53;;;9.80;56.02
41040;BME280;48586;50.122;18.972;2023-03-23T02:07:20;98018.78;;;9.84;56.08
41040;BME280;48586;50.122;18.972;2023-03-23T02:09:26;98007.41;;;9.89;56.17
41040;BME280;48586;50.122;18.972;2023-03-23T02:11:30;98008.34;;;9.94;55.80
41040;BME280;48586;50.122;18.972;2023-03-23T02:13:36;98003.09;;;9.99;55.84
41040;BME280;48586;50.122;18.972;2023-03-23T02:15:48;98002.38;;;10.04;55.42
41040;BME280;48586;50.122;18.972;2023-03-23T02:18:07;98005.03;;;10.04;55.48
41040;BME280;48586;50.122;18.972;2023-03-23T02:20:53;98004.72;;;10.00;55.73
41040;BME280;48586;50.122;18.972;2023-03-23T02:23:42;98003.34;;;9.98;56.02
41040;BME280;48586;50.122;18.972;2023-03-23T02:26:16;98004.63;;;9.95;56.10
41040;BME280;48586;50.122;18.972;2023-03-23T02:28:52;98000.56;;;9.93;56.17
41040;BME280;48586;50.122;18.972;2023-03-23T02:31:35;98003.75;;;9.90;56.27
41040;BME280;48586;50.122;18.972;2023-03-23T02:33:56;97991.16;;;9.85;56.26
41040;BME280;48586;50.122;18.972;2023-03-23T02:36:12;97994.84;;;9.84;56.00
41040;BME280;48586;50.122;18.972;2023-03-23T02:38:30;97991.38;;;9.84;56.13
41040;BME280;48586;50.122;18.972;2023-03-23T02:40:42;97993.81;;;9.85;55.92
41040;BME280;48586;50.122;18.972;2023-03-23T02:42:54;97992.75;;;9.86;55.88
41040;BME280;48586;50.122;18.972;2023-03-23T02:45:04;97988.00;;;9.88;55.78
41040;BME280;48586;50.122;18.972;2023-03-23T02:47:16;97987.78;;;9.90;55.67
41040;BME280;48586;50.122;18.972;2023-03-23T02:49:31;97978.97;;;9.89;55.86
41040;BME280;48586;50.122;18.972;2023-03-23T02:51:39;97982.94;;;9.87;55.56
41040;BME280;48586;50.122;18.972;2023-03-23T02:53:51;97986.06;;;9.84;55.68
41040;BME280;48586;50.122;18.972;2023-03-23T02:56:00;97987.59;;;9.80;56.38
41040;BME280;48586;50.122;18.972;2023-03-23T02:58:10;97982.19;;;9.74;56.15
41040;BME280;48586;50.122;18.972;2023-03-23T03:00:18;97978.63;;;9.69;56.25
41040;BME280;48586;50.122;18.972;2023-03-23T03:02:26;97988.34;;;9.63;56.57
41040;BME280;48586;50.122;18.972;2023-03-23T03:04:36;97986.91;;;9.56;56.91
41040;BME280;48586;50.122;18.972;2023-03-23T03:09:30;97983.22;;;9.45;56.75
41040;BME280;48586;50.122;18.972;2023-03-23T03:11:48;97981.28;;;9.40;56.85
41040;BME280;48586;50.122;18.972;2023-03-23T03:14:06;97985.47;;;9.36;56.65
41040;BME280;48586;50.122;18.972;2023-03-23T03:16:26;97980.16;;;9.36;56.84
41040;BME280;48586;50.122;18.972;2023-03-23T03:18:42;97975.41;;;9.38;56.73
41040;BME280;48586;50.122;18.972;2023-03-23T03:21:03;97983.38;;;9.38;56.84
41040;BME280;48586;50.122;18.972;2023-03-23T03:23:14;97979.09;;;9.37;56.64
41040;BME280;48586;50.122;18.972;2023-03-23T03:25:21;97975.16;;;9.40;56.91
41040;BME280;48586;50.122;18.972;2023-03-23T03:27:32;97977.81;;;9.40;56.86
41040;BME280;48586;50.122;18.972;2023-03-23T03:29:54;97974.63;;;9.38;56.93
41040;BME280;48586;50.122;18.972;2023-03-23T03:32:04;97982.34;;;9.39;57.04
41040;BME280;48586;50.122;18.972;2023-03-23T03:34:14;97973.91;;;9.42;56.78
41040;BME280;48586;50.122;18.972;2023-03-23T03:36:29;97978.25;;;9.48;56.69
41040;BME280;48586;50.122;18.972;2023-03-23T03:38:42;97970.88;;;9.50;56.61
41040;BME280;48586;50.122;18.972;2023-03-23T03:40:49;97970.69;;;9.57;56.64
41040;BME280;48586;50.122;18.972;2023-03-23T03:42:54;97972.41;;;9.63;56.41
41040;BME280;48586;50.122;18.972;2023-03-23T03:45:00;97968.78;;;9.69;56.24
41040;BME280;48586;50.122;18.972;2023-03-23T03:47:05;97963.09;;;9.78;55.94
41040;BME280;48586;50.122;18.972;2023-03-23T03:49:10;97954.72;;;9.86;55.64
41040;BME280;48586;50.122;18.972;2023-03-23T03:51:16;97968.09;;;9.91;55.40
41040;BME280;48586;50.122;18.972;2023-03-23T03:53:28;97964.47;;;9.97;55.33
41040;BME280;48586;50.122;18.972;2023-03-23T03:55:33;97970.38;;;9.99;55.08
41040;BME280;48586;50.122;18.972;2023-03-23T03:57:41;97969.31;;;10.00;55.34
41040;BME280;48586;50.122;18.972;2023-03-23T03:59:49;97981.56;;;10.01;54.96
41040;BME280;48586;50.122;18.972;2023-03-23T04:02:02;97982.63;;;10.00;55.06
41040;BME280;48586;50.122;18.972;2023-03-23T04:04:07;97988.41;;;9.97;55.06
41040;BME280;48586;50.122;18.972;2023-03-23T04:06:12;97981.72;;;9.94;55.39
41040;BME280;48586;50.122;18.972;2023-03-23T04:08:16;97985.66;;;9.92;55.34
41040;BME280;48586;50.122;18.972;2023-03-23T04:10:26;97988.00;;;9.88;55.42
41040;BME280;48586;50.122;18.972;2023-03-23T04:12:31;97980.81;;;9.89;55.38
41040;BME280;48586;50.122;18.972;2023-03-23T04:15:08;97980.59;;;9.90;55.49
41040;BME280;48586;50.122;18.972;2023-03-23T04:17:13;97976.09;;;9.91;55.32
41040;BME280;48586;50.122;18.972;2023-03-23T04:19:19;97972.84;;;9.89;55.21
41040;BME280;48586;50.122;18.972;2023-03-23T04:21:23;97979.69;;;9.85;55.31
41040;BME280;48586;50.122;18.972;2023-03-23T04:23:31;97969.63;;;9.87;55.38
41040;BME280;48586;50.122;18.972;2023-03-23T04:25:40;97975.50;;;9.89;55.16
41040;BME280;48586;50.122;18.972;2023-03-23T04:27:45;97962.53;;;9.92;55.15
41040;BME280;48586;50.122;18.972;2023-03-23T04:29:55;97970.28;;;9.94;54.83
41040;BME280;48586;50.122;18.972;2023-03-23T04:32:22;97969.22;;;9.95;55.09
41040;BME280;48586;50.122;18.972;2023-03-23T04:34:29;97954.31;;;9.94;54.73
41040;BME280;48586;50.122;18.972;2023-03-23T04:36:35;97956.16;;;9.93;54.77
41040;BME280;48586;50.122;18.972;2023-03-23T04:38:48;97956.66;;;9.90;54.87
41040;BME280;48586;50.122;18.972;2023-03-23T04:41:00;97951.00;;;9.87;54.63
41040;BME280;48586;50.122;18.972;2023-03-23T04:43:28;97950.94;;;9.82;55.06
41040;BME280;48586;50.122;18.972;2023-03-23T04:45:40;97961.56;;;9.82;54.86
41040;BME280;48586;50.122;18.972;2023-03-23T04:47:49;97958.31;;;9.80;54.99
41040;BME280;48586;50.122;18.972;2023-03-23T04:50:04;97958.81;;;9.77;54.69
41040;BME280;48586;50.122;18.972;2023-03-23T04:52:12;97957.69;;;9.72;55.08
41040;BME280;48586;50.122;18.972;2023-03-23T04:54:19;97963.94;;;9.66;55.19
41040;BME280;48586;50.122;18.972;2023-03-23T04:56:30;97966.84;;;9.65;55.12
41040;BME280;48586;50.122;18.972;2023-03-23T04:58:42;97969.72;;;9.63;55.08
41040;BME280;48586;50.122;18.972;2023-03-23T05:00:46;97970.22;;;9.60;54.91
41040;BME280;48586;50.122;18.972;2023-03-23T05:02:53;97964.25;;;9.53;54.25
41040;BME280;48586;50.122;18.972;2023-03-23T05:05:02;97972.13;;;9.48;54.93
41040;BME280;48586;50.122;18.972;2023-03-23T05:07:08;97969.03;;;9.39;55.32
41040;BME280;48586;50.122;18.972;2023-03-23T05:09:21;97975.06;;;9.35;55.66
41040;BME280;48586;50.122;18.972;2023-03-23T05:11:32;97974.19;;;9.29;56.13
41040;BME280;48586;50.122;18.972;2023-03-23T05:13:36;97970.69;;;9.29;56.20
41040;BME280;48586;50.122;18.972;2023-03-23T05:15:41;97968.63;;;9.31;55.95
41040;BME280;48586;50.122;18.972;2023-03-23T05:17:47;97970.81;;;9.34;56.08
41040;BME280;48586;50.122;18.972;2023-03-23T05:19:54;97973.22;;;9.35;56.26
41040;BME280;48586;50.122;18.972;2023-03-23T05:22:29;97976.44;;;9.37;55.97
41040;BME280;48586;50.122;18.972;2023-03-23T05:24:36;97977.56;;;9.41;56.10
41040;BME280;48586;50.122;18.972;2023-03-23T05:26:43;97979.53;;;9.46;55.95
41040;BME280;48586;50.122;18.972;2023-03-23T05:28:52;97978.59;;;9.52;56.02
41040;BME280;48586;50.122;18.972;2023-03-23T05:31:12;97970.22;;;9.60;55.78
41040;BME280;48586;50.122;18.972;2023-03-23T05:33:17;97963.00;;;9.72;55.76
41040;BME280;48586;50.122;18.972;2023-03-23T05:35:27;97970.09;;;9.84;55.34
41040;BME280;48586;50.122;18.972;2023-03-23T05:37:32;97975.59;;;9.94;55.04
41040;BME280;48586;50.122;18.972;2023-03-23T05:39:44;97969.38;;;10.05;55.01
41040;BME280;48586;50.122;18.972;2023-03-23T05:41:57;97973.59;;;10.18;54.74
41040;BME280;48586;50.122;18.972;2023-03-23T05:44:10;97966.31;;;10.30;54.44
41040;BME280;48586;50.122;18.972;2023-03-23T05:46:21;97968.69;;;10.43;54.01
41040;BME280;48586;50.122;18.972;2023-03-23T05:48:27;97965.13;;;10.55;53.56
41040;BME280;48586;50.122;18.972;2023-03-23T05:50:33;97977.78;;;10.64;53.56
41040;BME280;48586;50.122;18.972;2023-03-23T05:52:40;97980.56;;;10.74;53.33
41040;BME280;48586;50.122;18.972;2023-03-23T05:54:47;97974.50;;;10.79;52.74
41040;BME280;48586;50.122;18.972;2023-03-23T05:56:52;97975.41;;;10.85;52.65
41040;BME280;48586;50.122;18.972;2023-03-23T05:59:10;97987.72;;;10.91;52.69
41040;BME280;48586;50.122;18.972;2023-03-23T06:01:18;97985.44;;;10.99;52.88
41040;BME280;48586;50.122;18.972;2023-03-23T06:03:24;97980.16;;;11.05;52.44
41040;BME280;48586;50.122;18.972;2023-03-23T06:05:42;97983.69;;;11.10;52.55
41040;BME280;48586;50.122;18.972;2023-03-23T06:07:52;97977.63;;;11.15;52.06
41040;BME280;48586;50.122;18.972;2023-03-23T06:09:58;97984.31;;;11.17;51.99
41040;BME280;48586;50.122;18.972;2023-03-23T06:12:14;97978.75;;;11.19;51.98
41040;BME280;48586;50.122;18.972;2023-03-23T06:14:39;97980.22;;;11.32;52.49
41040;BME280;48586;50.122;18.972;2023-03-23T06:16:47;97975.81;;;11.42;52.44
41040;BME280;48586;50.122;18.972;2023-03-23T06:18:51;97974.03;;;11.53;52.17
41040;BME280;48586;50.122;18.972;2023-03-23T06:21:20;97973.63;;;11.66;51.30
41040;BME280;48586;50.122;18.972;2023-03-23T06:23:31;97964.72;;;11.78;51.88
41040;BME280;48586;50.122;18.972;2023-03-23T06:25:39;97961.91;;;11.89;50.94
41040;BME280;48586;50.122;18.972;2023-03-23T06:27:45;97962.47;;;11.96;50.48
41040;BME280;48586;50.122;18.972;2023-03-23T06:29:55;97965.22;;;12.02;50.47
41040;BME280;48586;50.122;18.972;2023-03-23T06:32:02;97960.22;;;12.10;49.86
41040;BME280;48586;50.122;18.972;2023-03-23T06:34:10;97966.91;;;12.18;50.00
41040;BME280;48586;50.122;18.972;2023-03-23T06:36:36;97960.88;;;12.28;49.71
41040;BME280;48586;50.122;18.972;2023-03-23T06:38:47;97972.66;;;12.32;49.39
41040;BME280;48586;50.122;18.972;2023-03-23T06:40:58;97971.63;;;12.38;49.60
41040;BME280;48586;50.122;18.972;2023-03-23T06:43:05;97963.66;;;12.48;49.43
41040;BME280;48586;50.122;18.972;2023-03-23T06:45:27;97963.75;;;12.58;49.14
41040;BME280;48586;50.122;18.972;2023-03-23T06:47:51;97959.81;;;12.71;48.99
41040;BME280;48586;50.122;18.972;2023-03-23T06:49:57;97960.66;;;12.82;48.21
41040;BME280;48586;50.122;18.972;2023-03-23T06:52:04;97963.88;;;12.84;47.91
41040;BME280;48586;50.122;18.972;2023-03-23T06:54:09;97974.06;;;12.87;47.74
41040;BME280;48586;50.122;18.972;2023-03-23T06:56:17;97967.44;;;12.94;47.71
41040;BME280;48586;50.122;18.972;2023-03-23T06:58:22;97964.78;;;12.99;47.92
41040;BME280;48586;50.122;18.972;2023-03-23T07:00:30;97973.38;;;13.07;47.40
41040;BME280;48586;50.122;18.972;2023-03-23T07:02:35;97971.28;;;13.14;47.37
41040;BME280;48586;50.122;18.972;2023-03-23T07:04:41;97974.50;;;13.21;47.15
41040;BME280;48586;50.122;18.972;2023-03-23T07:06:56;97973.19;;;13.29;46.81
41040;BME280;48586;50.122;18.972;2023-03-23T07:09:08;97972.13;;;13.35;46.72
41040;BME280;48586;50.122;18.972;2023-03-23T07:11:13;97968.69;;;13.39;46.18
41040;BME280;48586;50.122;18.972;2023-03-23T07:13:19;97965.75;;;13.46;45.86
41040;BME280;48586;50.122;18.972;2023-03-23T07:15:32;97972.19;;;13.55;45.70
41040;BME280;48586;50.122;18.972;2023-03-23T07:17:38;97967.13;;;13.64;45.78
41040;BME280;48586;50.122;18.972;2023-03-23T07:19:52;97973.03;;;13.76;45.30
41040;BME280;48586;50.122;18.972;2023-03-23T07:21:58;97967.69;;;13.81;45.50
41040;BME280;48586;50.122;18.972;2023-03-23T07:24:04;97974.91;;;13.86;45.26
41040;BME280;48586;50.122;18.972;2023-03-23T07:26:21;97980.84;;;13.93;44.95
41040;BME280;48586;50.122;18.972;2023-03-23T07:28:31;97974.69;;;13.97;44.67
41040;BME280;48586;50.122;18.972;2023-03-23T07:30:45;97979.53;;;14.06;44.92
41040;BME280;48586;50.122;18.972;2023-03-23T07:32:52;97966.66;;;14.08;44.79
41040;BME280;48586;50.122;18.972;2023-03-23T07:35:00;97980.31;;;14.06;44.29
41040;BME280;48586;50.122;18.972;2023-03-23T07:37:18;97979.00;;;14.14;44.55
41040;BME280;48586;50.122;18.972;2023-03-23T07:39:25;97984.63;;;14.17;44.40
41040;BME280;48586;50.122;18.972;2023-03-23T07:41:33;97990.22;;;14.21;44.38
41040;BME280;48586;50.122;18.972;2023-03-23T07:43:50;97989.97;;;14.22;44.78
41040;BME280;48586;50.122;18.972;2023-03-23T07:46:08;97994.25;;;14.29;43.94
41040;BME280;48586;50.122;18.972;2023-03-23T07:48:21;97984.06;;;14.36;44.71
41040;BME280;48586;50.122;18.972;2023-03-23T07:50:27;97983.53;;;14.44;44.23
41040;BME280;48586;50.122;18.972;2023-03-23T07:52:36;97984.03;;;14.51;43.73
41040;BME280;48586;50.122;18.972;2023-03-23T07:54:43;97985.09;;;14.55;43.84
41040;BME280;48586;50.122;18.972;2023-03-23T07:57:17;97981.63;;;14.60;43.32
41040;BME280;48586;50.122;18.972;2023-03-23T07:59:27;97978.13;;;14.69;43.87
41040;BME280;48586;50.122;18.972;2023-03-23T08:01:37;97978.63;;;14.76;43.58
41040;BME280;48586;50.122;18.972;2023-03-23T08:04:04;97970.31;;;14.88;43.39
41040;BME280;48586;50.122;18.972;2023-03-23T08:06:27;97983.47;;;14.95;43.69
41040;BME280;48586;50.122;18.972;2023-03-23T08:08:48;97985.03;;;15.01;43.55
41040;BME280;48586;50.122;18.972;2023-03-23T08:11:11;97988.25;;;15.03;43.04
41040;BME280;48586;50.122;18.972;2023-03-23T08:13:22;97986.38;;;15.04;43.33
41040;BME280;48586;50.122;18.972;2023-03-23T08:15:48;97986.66;;;14.97;42.66
41040;BME280;48586;50.122;18.972;2023-03-23T08:18:23;97978.34;;;14.88;42.99
41040;BME280;48586;50.122;18.972;2023-03-23T08:20:46;97981.03;;;14.83;43.18
41040;BME280;48586;50.122;18.972;2023-03-23T08:23:19;97973.25;;;14.92;42.62
41040;BME280;48586;50.122;18.972;2023-03-23T08:25:44;97974.31;;;15.01;42.47
41040;BME280;48586;50.122;18.972;2023-03-23T08:28:14;97974.03;;;15.08;42.12
41040;BME280;48586;50.122;18.972;2023-03-23T08:30:46;97979.38;;;15.13;41.53
41040;BME280;48586;50.122;18.972;2023-03-23T08:33:07;97974.25;;;15.21;41.82
41040;BME280;48586;50.122;18.972;2023-03-23T08:35:35;97977.38;;;15.39;41.65
41040;BME280;48586;50.122;18.972;2023-03-23T08:38:00;97978.34;;;15.58;40.84
41040;BME280;48586;50.122;18.972;2023-03-23T08:40:32;97975.25;;;15.80;40.40
41040;BME280;48586;50.122;18.972;2023-03-23T08:42:56;97985.09;;;16.00;39.35
41040;BME280;48586;50.122;18.972;2023-03-23T08:45:22;97985.59;;;16.07;39.34
41040;BME280;48586;50.122;18.972;2023-03-23T08:47:28;97977.53;;;16.36;39.41
41040;BME280;48586;50.122;18.972;2023-03-23T08:49:52;97973.75;;;16.66;38.79
41040;BME280;48586;50.122;18.972;2023-03-23T08:52:18;97991.03;;;16.89;37.65
41040;BME280;48586;50.122;18.972;2023-03-23T08:54:28;97977.63;;;16.84;36.50
41040;BME280;48586;50.122;18.972;2023-03-23T08:57:06;97963.97;;;16.75;36.97
41040;BME280;48586;50.122;18.972;2023-03-23T08:59:30;97970.78;;;16.68;37.15
41040;BME280;48586;50.122;18.972;2023-03-23T09:01:53;97959.84;;;16.59;37.24
41040;BME280;48586;50.122;18.972;2023-03-23T09:04:09;97960.91;;;16.63;37.64
41040;BME280;48586;50.122;18.972;2023-03-23T09:06:29;97965.78;;;16.56;37.39
41040;BME280;48586;50.122;18.972;2023-03-23T09:08:38;97966.88;;;16.55;37.38
41040;BME280;48586;50.122;18.972;2023-03-23T09:10:43;97963.16;;;16.51;37.24
41040;BME280;48586;50.122;18.972;2023-03-23T09:12:49;97959.25;;;16.62;38.08
41040;BME280;48586;50.122;18.972;2023-03-23T09:14:55;97962.06;;;16.81;37.85
41040;BME280;48586;50.122;18.972;2023-03-23T09:16:59;97968.25;;;16.82;36.54
41040;BME280;48586;50.122;18.972;2023-03-23T09:19:09;97964.31;;;16.98;36.69
41040;BME280;48586;50.122;18.972;2023-03-23T09:21:13;97962.00;;;17.10;36.60
41040;BME280;48586;50.122;18.972;2023-03-23T09:23:19;97959.69;;;17.22;36.20
41040;BME280;48586;50.122;18.972;2023-03-23T09:25:28;97962.84;;;17.30;35.48
41040;BME280;48586;50.122;18.972;2023-03-23T09:27:32;97961.63;;;17.41;35.37
41040;BME280;48586;50.122;18.972;2023-03-23T09:29:38;97962.91;;;17.43;35.33
41040;BME280;48586;50.122;18.972;2023-03-23T09:31:44;97964.81;;;17.43;35.70
41040;BME280;48586;50.122;18.972;2023-03-23T09:33:49;97958.94;;;17.41;34.87
41040;BME280;48586;50.122;18.972;2023-03-23T09:35:57;97968.22;;;17.30;34.75
41040;BME280;48586;50.122;18.972;2023-03-23T09:38:03;97970.47;;;17.22;34.99
41040;BME280;48586;50.122;18.972;2023-03-23T09:40:13;97989.44;;;17.12;34.96
41040;BME280;48586;50.122;18.972;2023-03-23T09:42:38;97963.31;;;17.13;35.04
41040;BME280;48586;50.122;18.972;2023-03-23T09:45:02;97972.75;;;17.10;35.63
41040;BME280;48586;50.122;18.972;2023-03-23T09:47:22;97969.00;;;17.11;35.11
41040;BME280;48586;50.122;18.972;2023-03-23T09:49:41;97971.78;;;17.01;35.97
41040;BME280;48586;50.122;18.972;2023-03-23T09:51:54;97978.13;;;17.10;36.68
41040;BME280;48586;50.122;18.972;2023-03-23T09:54:09;97965.88;;;17.23;36.69
41040;BME280;48586;50.122;18.972;2023-03-23T09:56:29;97958.94;;;17.41;35.58
41040;BME280;48586;50.122;18.972;2023-03-23T09:58:48;97952.09;;;17.67;34.99
41040;BME280;48586;50.122;18.972;2023-03-23T10:01:05;97961.78;;;17.87;34.08
41040;BME280;48586;50.122;18.972;2023-03-23T10:03:16;97971.44;;;18.07;33.02
41040;BME280;48586;50.122;18.972;2023-03-23T10:05:31;97963.03;;;18.28;32.64
41040;BME280;48586;50.122;18.972;2023-03-23T10:07:38;97941.78;;;18.40;32.17
41040;BME280;48586;50.122;18.972;2023-03-23T10:09:47;97939.44;;;18.52;32.42
41040;BME280;48586;50.122;18.972;2023-03-23T10:12:06;97955.84;;;18.69;31.83
41040;BME280;48586;50.122;18.972;2023-03-23T10:14:36;97948.66;;;18.79;31.87
41040;BME280;48586;50.122;18.972;2023-03-23T10:16:58;97973.88;;;19.02;31.22
41040;BME280;48586;50.122;18.972;2023-03-23T10:19:20;97935.06;;;19.11;31.10
41040;BME280;48586;50.122;18.972;2023-03-23T10:21:37;97973.56;;;19.03;30.23
41040;BME280;48586;50.122;18.972;2023-03-23T10:23:58;97966.66;;;19.11;29.83
41040;BME280;48586;50.122;18.972;2023-03-23T10:26:15;97954.75;;;19.12;29.94
41040;BME280;48586;50.122;18.972;2023-03-23T10:28:37;97934.28;;;18.97;29.82
41040;BME280;48586;50.122;18.972;2023-03-23T10:30:49;97929.44;;;19.21;29.98
41040;BME280;48586;50.122;18.972;2023-03-23T10:33:04;97941.34;;;19.48;29.23
41040;BME280;48586;50.122;18.972;2023-03-23T10:35:21;97934.94;;;19.44;28.73
41040;BME280;48586;50.122;18.972;2023-03-23T10:37:36;97938.00;;;19.51;28.60
41040;BME280;48586;50.122;18.972;2023-03-23T10:39:49;97963.81;;;19.30;28.70
41040;BME280;48586;50.122;18.972;2023-03-23T10:41:59;97975.75;;;19.15;28.97
41040;BME280;48586;50.122;18.972;2023-03-23T10:44:11;97957.34;;;19.17;29.14
41040;BME280;48586;50.122;18.972;2023-03-23T10:46:29;97943.19;;;18.84;29.60
41040;BME280;48586;50.122;18.972;2023-03-23T10:48:39;97954.19;;;18.41;29.81
41040;BME280;48586;50.122;18.972;2023-03-23T10:50:56;97956.91;;;18.22;29.77
41040;BME280;48586;50.122;18.972;2023-03-23T10:53:14;97949.81;;;18.12;30.23
41040;BME280;48586;50.122;18.972;2023-03-23T10:55:22;97960.31;;;17.95;30.52
41040;BME280;48586;50.122;18.972;2023-03-23T10:57:31;97947.81;;;17.85;31.04
41040;BME280;48586;50.122;18.972;2023-03-23T10:59:40;97947.75;;;17.71;30.95
41040;BME280;48586;50.122;18.972;2023-03-23T11:01:51;97945.16;;;17.61;31.54
41040;BME280;48586;50.122;18.972;2023-03-23T11:03:58;97926.03;;;17.63;31.85
41040;BME280;48586;50.122;18.972;2023-03-23T11:06:09;97941.25;;;17.54;31.62
41040;BME280;48586;50.122;18.972;2023-03-23T11:08:18;97928.06;;;17.52;32.07
41040;BME280;48586;50.122;18.972;2023-03-23T11:10:27;97935.72;;;17.64;32.19
41040;BME280;48586;50.122;18.972;2023-03-23T11:12:44;97932.31;;;17.58;32.12
41040;BME280;48586;50.122;18.972;2023-03-23T11:14:50;97949.59;;;17.52;32.38
41040;BME280;48586;50.122;18.972;2023-03-23T11:17:00;97941.53;;;17.52;32.22
41040;BME280;48586;50.122;18.972;2023-03-23T11:19:13;97942.19;;;17.63;32.29
41040;BME280;48586;50.122;18.972;2023-03-23T11:21:22;97959.81;;;17.55;32.00
41040;BME280;48586;50.122;18.972;2023-03-23T11:23:30;97945.53;;;17.55;31.77
41040;BME280;48586;50.122;18.972;2023-03-23T11:25:56;97932.50;;;17.62;31.67
41040;BME280;48586;50.122;18.972;2023-03-23T11:28:04;97925.03;;;17.59;31.97
41040;BME280;48586;50.122;18.972;2023-03-23T11:30:18;97935.94;;;17.67;31.82
41040;BME280;48586;50.122;18.972;2023-03-23T11:32:30;97927.28;;;17.70;31.99
41040;BME280;48586;50.122;18.972;2023-03-23T11:34:41;97925.25;;;17.81;32.44
41040;BME280;48586;50.122;18.972;2023-03-23T11:36:51;97927.84;;;17.86;31.66
41040;BME280;48586;50.122;18.972;2023-03-23T11:39:01;97924.81;;;17.93;31.81
41040;BME280;48586;50.122;18.972;2023-03-23T11:41:10;97926.31;;;17.99;31.90